Time;durP1;ratioP1;P1;durP2;ratioP2;P2;SDS_P1;SDS_P2;PMS_P1;PMS_P2;Temp;Humidity;BMP_temperature;BMP_pressure;BME280_temperature;BME280_humidity;BME280_pressure;Samples;Min_cycle;Max_cycle;Signal;HPM_P1;HPM_P2
2021/05/28 00:00:34;;;;;;;0.10;0.10;;;15.80;89.00;;;;;;4169756;28;20148;-52
2021/05/28 00:02:57;;;;;;;0.00;0.00;;;15.80;89.10;;;;;;4172906;28;20052;-53
2021/05/28 00:05:18;;;;;;;0.10;0.10;;;15.70;89.00;;;;;;4174261;28;20053;-53
2021/05/28 00:07:40;;;;;;;2.45;1.48;;;15.70;89.10;;;;;;4173935;28;20051;-53
2021/05/28 00:10:02;;;;;;;0.05;0.05;;;15.70;89.20;;;;;;4157557;28;20136;-51
2021/05/28 00:12:23;;;;;;;0.00;0.00;;;15.70;89.20;;;;;;4168041;28;20049;-50
2021/05/28 00:14:45;;;;;;;;;;;15.70;89.30;;;;;;4174635;28;20049;-52
2021/05/28 00:17:06;;;;;;;0.00;0.00;;;15.70;89.30;;;;;;4174020;28;20302;-54
2021/05/28 00:19:29;;;;;;;0.00;0.00;;;15.70;89.30;;;;;;4165420;28;20041;-52
2021/05/28 00:21:51;;;;;;;0.00;0.00;;;15.70;89.30;;;;;;4160486;28;20042;-50
2021/05/28 00:24:12;;;;;;;1.35;1.23;;;15.70;89.30;;;;;;4160455;28;20510;-48
2021/05/28 00:26:38;;;;;;;0.10;0.10;;;15.70;89.20;;;;;;4160491;28;20049;-51
2021/05/28 00:28:59;;;;;;;0.20;0.20;;;15.70;89.30;;;;;;4162711;28;20601;-53
2021/05/28 00:31:21;;;;;;;0.20;0.20;;;15.70;89.30;;;;;;4164568;28;20057;-47
2021/05/28 00:33:43;;;;;;;0.00;0.00;;;15.70;89.40;;;;;;4160641;28;20045;-51
2021/05/28 00:36:05;;;;;;;0.00;0.00;;;15.70;89.50;;;;;;4160292;28;20502;-51
2021/05/28 00:38:27;;;;;;;0.00;0.00;;;15.70;89.50;;;;;;4160377;28;20049;-53
2021/05/28 00:40:49;;;;;;;0.08;0.08;;;15.70;89.50;;;;;;4160357;28;20519;-53
2021/05/28 00:43:11;;;;;;;0.00;0.00;;;15.70;89.60;;;;;;4165663;28;20049;-50
2021/05/28 00:45:32;;;;;;;2.28;0.47;;;15.70;89.50;;;;;;4176625;28;20123;-49
2021/05/28 00:47:55;;;;;;;0.15;0.15;;;15.70;89.40;;;;;;4176793;28;20509;-48
2021/05/28 00:50:16;;;;;;;0.65;0.65;;;15.60;89.50;;;;;;4173431;28;20410;-52
2021/05/28 00:52:39;;;;;;;0.00;0.00;;;15.70;89.60;;;;;;4159814;28;20127;-50
2021/05/28 00:55:02;;;;;;;0.00;0.00;;;15.60;89.50;;;;;;4159021;28;20060;-50
2021/05/28 00:57:26;;;;;;;0.08;0.08;;;15.60;89.60;;;;;;4160205;28;20076;-48
2021/05/28 00:59:49;;;;;;;0.20;0.20;;;15.60;89.50;;;;;;4168217;28;20045;-53
2021/05/28 01:02:11;;;;;;;0.00;0.00;;;15.60;89.50;;;;;;4175988;28;20060;-50
2021/05/28 01:04:34;;;;;;;0.08;0.08;;;15.60;89.50;;;;;;4176332;28;20038;-47
2021/05/28 01:06:55;;;;;;;0.00;0.00;;;15.60;89.50;;;;;;4176549;28;20053;-49
2021/05/28 01:09:18;;;;;;;0.32;0.32;;;15.60;89.50;;;;;;4161785;28;20053;-52
2021/05/28 01:11:39;;;;;;;0.15;0.15;;;15.60;89.50;;;;;;4160181;28;20805;-52
2021/05/28 01:14:01;;;;;;;0.00;0.00;;;15.60;89.50;;;;;;4159840;28;20140;-53
2021/05/28 01:16:23;;;;;;;0.00;0.00;;;15.60;89.50;;;;;;4160396;28;20045;-51
2021/05/28 01:18:44;;;;;;;0.00;0.00;;;15.60;89.50;;;;;;4160055;28;20045;-48
2021/05/28 01:21:06;;;;;;;0.00;0.00;;;15.60;89.60;;;;;;4172650;28;20103;-50
2021/05/28 01:23:29;;;;;;;0.00;0.00;;;15.60;89.60;;;;;;4166581;28;20086;-49
2021/05/28 01:25:51;;;;;;;0.30;0.30;;;15.60;89.60;;;;;;4159607;28;20850;-50
2021/05/28 01:28:12;;;;;;;0.00;0.00;;;15.60;89.50;;;;;;4159389;28;20159;-50
2021/05/28 01:30:34;;;;;;;2.25;2.10;;;15.60;89.50;;;;;;4158395;28;20056;-52
2021/05/28 01:32:59;;;;;;;0.80;0.80;;;15.60;89.60;;;;;;4159618;28;20552;-51
2021/05/28 01:35:20;;;;;;;;;;;15.60;89.60;;;;;;4160035;28;20045;-49
2021/05/28 01:37:42;;;;;;;;;;;15.60;89.60;;;;;;4166428;28;19920;-49
2021/05/28 01:40:05;;;;;;;;;;;15.60;89.70;;;;;;4176380;28;19929;-49
2021/05/28 01:42:26;;;;;;;0.00;0.00;;;15.60;89.60;;;;;;4175870;28;20695;-52
2021/05/28 01:44:48;;;;;;;0.30;0.30;;;15.60;89.60;;;;;;4175679;28;20049;-48
2021/05/28 01:47:10;;;;;;;0.00;0.00;;;15.60;90.20;;;;;;4174658;28;20147;-48
2021/05/28 01:49:32;;;;;;;0.00;0.00;;;15.60;89.70;;;;;;4159415;28;20132;-50
2021/05/28 01:51:53;;;;;;;0.00;0.00;;;15.60;89.80;;;;;;4159266;28;20045;-52
2021/05/28 01:54:15;;;;;;;0.55;0.47;;;15.60;89.80;;;;;;4159054;28;20508;-49
2021/05/28 01:56:38;;;;;;;0.00;0.00;;;15.50;89.90;;;;;;4160234;28;20061;-48
2021/05/28 01:59:04;;;;;;;0.50;0.50;;;15.50;89.90;;;;;;4158615;28;20132;-51
2021/05/28 02:01:25;;;;;;;0.00;0.00;;;15.50;89.80;;;;;;4159242;28;20060;-50
2021/05/28 02:03:47;;;;;;;0.08;0.08;;;15.50;89.80;;;;;;4158975;28;20058;-52
2021/05/28 02:06:09;;;;;;;0.00;0.00;;;15.50;89.80;;;;;;4158813;28;20088;-49
2021/05/28 02:08:30;;;;;;;0.10;0.10;;;15.50;89.80;;;;;;4159073;28;20099;-50
2021/05/28 02:10:52;;;;;;;0.00;0.00;;;15.50;89.90;;;;;;4158896;28;20068;-52
2021/05/28 02:13:14;;;;;;;0.32;0.32;;;15.50;89.90;;;;;;4159134;28;20111;-51
2021/05/28 02:15:36;;;;;;;0.60;0.60;;;15.50;90.00;;;;;;4158984;28;20133;-55
2021/05/28 02:17:58;;;;;;;0.15;0.15;;;15.50;90.00;;;;;;4158988;28;20053;-52
2021/05/28 02:20:20;;;;;;;0.50;0.45;;;15.50;90.00;;;;;;4158926;28;20050;-52
2021/05/28 02:22:42;;;;;;;0.10;0.10;;;15.50;90.00;;;;;;4158852;28;20539;-54
2021/05/28 02:25:05;;;;;;;0.00;0.00;;;15.50;90.00;;;;;;4158750;28;20069;-51
2021/05/28 02:27:27;;;;;;;0.00;0.00;;;15.50;90.00;;;;;;4143935;28;20046;-49
2021/05/28 02:29:49;;;;;;;0.00;0.00;;;15.50;90.00;;;;;;4174486;28;20056;-49
2021/05/28 02:32:11;;;;;;;0.00;0.00;;;15.50;90.00;;;;;;4165907;28;20045;-50
2021/05/28 02:34:33;;;;;;;0.47;0.47;;;15.50;90.00;;;;;;4158536;28;20473;-52
2021/05/28 02:36:54;;;;;;;0.13;0.13;;;15.50;90.00;;;;;;4158697;28;20111;-53
2021/05/28 02:39:16;;;;;;;0.00;0.00;;;15.50;90.00;;;;;;4158676;28;20061;-52
2021/05/28 02:41:37;;;;;;;0.00;0.00;;;15.50;90.00;;;;;;4158294;28;20060;-48
2021/05/28 02:43:59;;;;;;;0.00;0.00;;;15.50;90.00;;;;;;4158761;28;20052;-52
2021/05/28 02:46:21;;;;;;;1.55;0.60;;;15.50;90.00;;;;;;4158616;28;20499;-49
2021/05/28 02:48:43;;;;;;;0.00;0.00;;;15.50;90.00;;;;;;4159387;28;20041;-52
2021/05/28 02:51:06;;;;;;;0.00;0.00;;;15.50;90.00;;;;;;4158181;28;20511;-50
2021/05/28 02:53:33;;;;;;;0.00;0.00;;;15.50;90.00;;;;;;4168419;28;20044;-51
2021/05/28 02:55:55;;;;;;;0.08;0.08;;;15.40;90.00;;;;;;4175028;28;20132;-47
2021/05/28 02:58:17;;;;;;;0.00;0.00;;;15.50;90.00;;;;;;4171640;28;20048;-48
2021/05/28 03:00:38;;;;;;;0.00;0.00;;;15.50;90.00;;;;;;4158250;28;20415;-52
2021/05/28 03:03:01;;;;;;;0.00;0.00;;;15.50;90.00;;;;;;4163864;28;20410;-51
2021/05/28 03:05:23;;;;;;;0.47;0.43;;;15.40;90.00;;;;;;4174686;28;20118;-51
2021/05/28 03:07:45;;;;;;;0.00;0.00;;;15.40;90.00;;;;;;4174397;28;20146;-51
2021/05/28 03:10:07;;;;;;;0.00;0.00;;;15.40;90.00;;;;;;4174489;28;20115;-48
2021/05/28 03:12:29;;;;;;;0.30;0.30;;;15.40;90.00;;;;;;4174799;28;20132;-52
2021/05/28 03:14:50;;;;;;;0.05;0.05;;;15.40;90.00;;;;;;4170095;28;20129;-50
2021/05/28 03:17:12;;;;;;;0.35;0.20;;;15.50;90.00;;;;;;4156916;28;20072;-46
2021/05/28 03:19:41;;;;;;;0.00;0.00;;;15.40;90.00;;;;;;4158019;28;20038;-51
2021/05/28 03:24:45;;;;;;;0.10;0.10;;;15.40;90.00;;;;;;4143035;28;20832;-49
2021/05/28 03:27:06;;;;;;;0.00;0.00;;;15.40;90.00;;;;;;4159641;28;20143;-49
2021/05/28 03:29:28;;;;;;;0.00;0.00;;;15.40;90.00;;;;;;4162004;28;20042;-51
2021/05/28 03:31:49;;;;;;;0.00;0.00;;;15.40;90.00;;;;;;4158116;28;20045;-49
2021/05/28 03:34:11;;;;;;;0.00;0.00;;;15.40;90.00;;;;;;4158025;28;20061;-47
2021/05/28 03:36:33;;;;;;;0.00;0.00;;;15.40;90.00;;;;;;4158074;28;20111;-47
2021/05/28 03:38:57;;;;;;;0.00;0.00;;;15.40;90.00;;;;;;4158106;28;20381;-49
2021/05/28 03:41:19;;;;;;;0.00;0.00;;;15.40;90.00;;;;;;4157833;28;20056;-48
2021/05/28 03:43:40;;;;;;;;;;;15.40;90.00;;;;;;4158076;28;20050;-51
2021/05/28 03:46:03;;;;;;;1.05;0.55;;;15.40;90.00;;;;;;4157856;28;19987;-51
2021/05/28 03:48:25;;;;;;;0.00;0.00;;;15.40;90.00;;;;;;4156602;28;20550;-49
2021/05/28 03:50:46;;;;;;;;;;;15.40;90.10;;;;;;4158439;28;20132;-52
2021/05/28 03:53:09;;;;;;;0.00;0.00;;;15.40;90.10;;;;;;4167442;28;19931;-48
2021/05/28 03:55:31;;;;;;;0.00;0.00;;;15.40;90.00;;;;;;4177457;28;20052;-50
2021/05/28 03:57:52;;;;;;;0.20;0.20;;;15.40;90.00;;;;;;4174293;28;20044;-51
2021/05/28 04:00:16;;;;;;;0.00;0.00;;;15.40;90.00;;;;;;4160948;28;20490;-47
2021/05/28 04:02:37;;;;;;;0.03;0.03;;;15.40;90.00;;;;;;4165590;28;20045;-49
2021/05/28 04:04:58;;;;;;;;;;;15.40;90.00;;;;;;4177962;28;20052;-48
2021/05/28 04:07:20;;;;;;;;;;;15.40;90.10;;;;;;4177669;28;19925;-47
2021/05/28 04:09:42;;;;;;;0.00;0.00;;;15.40;90.10;;;;;;4177366;28;20363;-50
2021/05/28 04:12:05;;;;;;;0.52;0.52;;;15.40;90.10;;;;;;4175154;28;20106;-57
2021/05/28 04:14:27;;;;;;;0.00;0.00;;;15.40;90.10;;;;;;4171509;28;20103;-48
2021/05/28 04:16:48;;;;;;;0.95;0.73;;;15.40;90.50;;;;;;4160905;28;20478;-47
2021/05/28 04:19:10;;;;;;;0.00;0.00;;;15.40;90.10;;;;;;4160699;28;20053;-49
2021/05/28 04:21:32;;;;;;;0.08;0.08;;;15.40;90.00;;;;;;4160819;28;20052;-50
2021/05/28 04:23:54;;;;;;;0.05;0.05;;;15.40;90.00;;;;;;4176871;28;20055;-49
2021/05/28 04:26:16;;;;;;;0.65;0.35;;;15.40;90.00;;;;;;4177482;28;20503;-51
2021/05/28 04:28:38;;;;;;;0.00;0.00;;;15.40;90.40;;;;;;4166817;28;20075;-49
2021/05/28 04:31:02;;;;;;;0.20;0.20;;;15.40;90.00;;;;;;4160135;28;20448;-50
2021/05/28 04:33:24;;;;;;;0.05;0.05;;;15.40;90.10;;;;;;4172420;28;20748;-51
2021/05/28 04:35:46;;;;;;;0.05;0.05;;;15.40;90.00;;;;;;4176785;28;20081;-51
2021/05/28 04:38:08;;;;;;;0.00;0.00;;;15.40;90.00;;;;;;4176742;28;20045;-49
2021/05/28 04:40:31;;;;;;;0.00;0.00;;;15.50;90.10;;;;;;4177060;28;20491;-53
2021/05/28 04:42:53;;;;;;;0.10;0.10;;;15.50;90.00;;;;;;4174768;28;20041;-53
2021/05/28 04:45:15;;;;;;;0.00;0.00;;;15.50;90.00;;;;;;4176848;28;20463;-54
2021/05/28 04:47:36;;;;;;;;;;;15.50;90.00;;;;;;4177340;28;20065;-49
2021/05/28 04:49:57;;;;;;;0.00;0.00;;;15.50;90.00;;;;;;4173824;28;20371;-51
2021/05/28 04:52:19;;;;;;;0.00;0.00;;;15.50;89.80;;;;;;4168221;28;20408;-49
2021/05/28 04:54:41;;;;;;;0.00;0.00;;;15.50;89.90;;;;;;4149132;28;20757;-53
2021/05/28 04:57:03;;;;;;;0.00;0.00;;;15.60;89.90;;;;;;4160305;28;20057;-48
2021/05/28 04:59:25;;;;;;;0.05;0.05;;;15.50;89.80;;;;;;4158717;28;20045;-52
2021/05/28 05:01:47;;;;;;;0.00;0.00;;;15.50;89.80;;;;;;4160014;28;20060;-51
2021/05/28 05:04:09;;;;;;;0.00;0.00;;;15.50;89.70;;;;;;4159976;28;20073;-52
2021/05/28 05:06:31;;;;;;;0.90;0.73;;;15.60;90.20;;;;;;4159828;28;20132;-49
2021/05/28 05:08:53;;;;;;;0.00;0.00;;;15.70;89.60;;;;;;4176259;28;20061;-53
2021/05/28 05:11:15;;;;;;;0.00;0.00;;;15.70;89.50;;;;;;4176174;28;20041;-51
2021/05/28 05:13:36;;;;;;;;;;;15.80;89.30;;;;;;4160540;28;20050;-48
2021/05/28 05:15:58;;;;;;;0.70;0.70;;;15.90;89.00;;;;;;4159847;28;19960;-51
2021/05/28 05:18:20;;;;;;;0.00;0.00;;;16.00;88.20;;;;;;4160003;28;20514;-52
2021/05/28 05:20:41;;;;;;;0.25;0.25;;;16.10;87.80;;;;;;4159712;28;20049;-48
2021/05/28 05:23:05;;;;;;;0.00;0.00;;;16.10;88.00;;;;;;4167341;28;20504;-51
2021/05/28 05:25:27;;;;;;;0.05;0.05;;;16.10;88.10;;;;;;4159854;28;20048;-50
2021/05/28 05:27:48;;;;;;;0.55;0.55;;;16.00;88.30;;;;;;4147689;28;20042;-50
2021/05/28 05:30:11;;;;;;;;;;;16.00;88.70;;;;;;4143388;28;20050;-51
2021/05/28 05:32:34;;;;;;;0.13;0.13;;;16.00;90.30;;;;;;4166734;28;20399;-49
2021/05/28 05:34:56;;;;;;;0.20;0.20;;;16.00;90.10;;;;;;4173373;28;20118;-53
2021/05/28 05:37:17;;;;;;;0.20;0.20;;;16.00;90.00;;;;;;4172325;28;20072;-51
2021/05/28 05:39:39;;;;;;;0.38;0.38;;;16.00;90.00;;;;;;4167194;28;20068;-49
2021/05/28 05:42:01;;;;;;;0.75;0.75;;;16.00;89.90;;;;;;4175794;28;20491;-46
2021/05/28 05:44:22;;;;;;;0.70;0.55;;;15.90;89.90;;;;;;4175890;28;20640;-49
2021/05/28 05:46:45;;;;;;;0.80;0.80;;;15.90;89.90;;;;;;4176089;28;20140;-47
2021/05/28 05:49:07;;;;;;;0.00;0.00;;;15.90;89.90;;;;;;4175402;28;20075;-51
2021/05/28 05:51:29;;;;;;;1.20;1.17;;;15.90;90.00;;;;;;4176076;28;20491;-47
2021/05/28 05:53:51;;;;;;;0.00;0.00;;;15.80;90.30;;;;;;4159290;28;20060;-47
2021/05/28 05:56:12;;;;;;;0.63;0.63;;;15.90;90.00;;;;;;4159111;28;20503;-53
2021/05/28 05:58:34;;;;;;;0.05;0.05;;;15.90;89.90;;;;;;4159150;28;20049;-49
2021/05/28 06:00:56;;;;;;;0.00;0.00;;;15.90;89.80;;;;;;4160125;28;20132;-49
2021/05/28 06:03:18;;;;;;;0.57;0.57;;;15.90;89.80;;;;;;4159362;28;20511;-50
2021/05/28 06:05:40;;;;;;;0.00;0.00;;;15.90;89.70;;;;;;4159136;28;20060;-51
2021/05/28 06:08:02;;;;;;;9.13;2.13;;;15.90;89.60;;;;;;4158834;28;20495;-50
2021/05/28 06:10:24;;;;;;;0.00;0.00;;;15.90;89.30;;;;;;4159126;28;20056;-51
2021/05/28 06:12:45;;;;;;;0.08;0.08;;;15.90;89.10;;;;;;4163778;28;20688;-53
2021/05/28 06:15:07;;;;;;;0.00;0.00;;;16.00;89.00;;;;;;4158209;28;20419;-50
2021/05/28 06:17:29;;;;;;;1.88;0.57;;;16.00;88.90;;;;;;4171918;28;20127;-53
2021/05/28 06:19:52;;;;;;;0.00;0.00;;;16.00;88.90;;;;;;4175153;28;20041;-49
2021/05/28 06:22:21;;;;;;;0.00;0.00;;;16.00;88.90;;;;;;4168313;28;20084;-53
2021/05/28 06:24:45;;;;;;;0.05;0.05;;;16.00;88.70;;;;;;4158425;28;20060;-50
2021/05/28 06:27:09;;;;;;;0.55;0.55;;;16.00;88.50;;;;;;4158379;28;20053;-50
2021/05/28 06:29:31;;;;;;;0.38;0.38;;;16.10;88.40;;;;;;4158868;28;20049;-51
2021/05/28 06:31:55;;;;;;;0.00;0.00;;;16.10;88.10;;;;;;4159756;28;20053;-51
2021/05/28 06:34:17;;;;;;;0.60;0.60;;;16.20;87.90;;;;;;4158620;28;20770;-49
2021/05/28 06:36:38;;;;;;;0.20;0.20;;;16.20;87.80;;;;;;4158812;28;20073;-49
2021/05/28 06:39:01;;;;;;;0.52;0.52;;;16.30;88.40;;;;;;4158883;28;20037;-50
2021/05/28 06:41:23;;;;;;;0.47;0.47;;;16.40;87.10;;;;;;4158081;28;20450;-49
2021/05/28 06:43:45;;;;;;;0.00;0.00;;;16.40;86.70;;;;;;4158218;28;20056;-50
2021/05/28 06:46:07;;;;;;;0.00;0.00;;;16.50;86.70;;;;;;4158626;28;20519;-50
2021/05/28 06:48:29;;;;;;;0.08;0.08;;;16.60;86.60;;;;;;4158220;28;20060;-53
2021/05/28 06:50:51;;;;;;;0.45;0.45;;;16.60;86.20;;;;;;4170304;28;20053;-50
2021/05/28 06:53:13;;;;;;;0.17;0.17;;;16.60;86.10;;;;;;4158747;28;20075;-52
2021/05/28 06:55:36;;;;;;;0.57;0.57;;;16.70;85.90;;;;;;4158684;28;20478;-48
2021/05/28 06:57:58;;;;;;;0.00;0.00;;;16.80;85.60;;;;;;4158780;28;20484;-51
2021/05/28 07:00:20;;;;;;;0.45;0.45;;;16.80;85.30;;;;;;4165473;28;20392;-47
2021/05/28 07:02:42;;;;;;;1.35;0.15;;;16.80;85.00;;;;;;4175171;28;20507;-46
2021/05/28 07:05:06;;;;;;;0.10;0.10;;;16.80;85.10;;;;;;4174864;28;20073;-48
2021/05/28 07:07:27;;;;;;;0.00;0.00;;;16.70;85.00;;;;;;4175169;28;20041;-50
2021/05/28 07:09:49;;;;;;;1.55;0.55;;;16.70;85.00;;;;;;4175063;28;20108;-51
2021/05/28 07:12:11;;;;;;;0.10;0.10;;;16.70;85.10;;;;;;4174811;28;20076;-48
2021/05/28 07:14:33;;;;;;;0.00;0.00;;;16.70;85.00;;;;;;4173356;28;20044;-52
2021/05/28 07:16:55;;;;;;;0.52;0.52;;;16.80;84.90;;;;;;4171956;28;20049;-52
2021/05/28 07:19:17;;;;;;;0.00;0.00;;;16.80;84.50;;;;;;4172014;28;20056;-49
2021/05/28 07:21:39;;;;;;;0.00;0.00;;;16.90;84.30;;;;;;4171612;28;20532;-50
2021/05/28 07:24:00;;;;;;;0.13;0.13;;;16.90;84.10;;;;;;4174716;28;20503;-50
2021/05/28 07:26:22;;;;;;;0.00;0.00;;;17.00;84.00;;;;;;4173295;28;20131;-50
2021/05/28 07:28:45;;;;;;;0.00;0.00;;;17.00;83.90;;;;;;4176685;28;20048;-50
2021/05/28 07:31:07;;;;;;;0.00;0.00;;;17.00;83.90;;;;;;4178362;28;20045;-47
2021/05/28 07:33:28;;;;;;;;;;;17.00;83.70;;;;;;4177298;28;20559;-46
2021/05/28 07:35:50;;;;;;;2.05;1.85;;;17.00;83.50;;;;;;4175035;28;20599;-47
2021/05/28 07:38:12;;;;;;;0.00;0.00;;;17.00;83.50;;;;;;4176384;28;20059;-48
2021/05/28 07:40:34;;;;;;;0.10;0.10;;;17.10;83.70;;;;;;4177901;28;20116;-46
2021/05/28 07:42:56;;;;;;;1.00;0.55;;;17.00;83.70;;;;;;4177821;28;20055;-49
2021/05/28 07:45:19;;;;;;;0.00;0.00;;;17.00;83.90;;;;;;4177702;28;20057;-50
2021/05/28 07:47:40;;;;;;;0.20;0.20;;;17.00;83.90;;;;;;4177831;28;20064;-46
2021/05/28 07:50:05;;;;;;;0.30;0.30;;;17.00;83.80;;;;;;4177676;28;20053;-47
2021/05/28 07:52:26;;;;;;;2.65;1.13;;;17.00;83.90;;;;;;4178230;28;20483;-46
2021/05/28 07:54:47;;;;;;;0.00;0.00;;;16.90;83.70;;;;;;4177840;28;20110;-49
2021/05/28 07:57:09;;;;;;;;;;;16.90;83.90;;;;;;4162398;28;20639;-48
2021/05/28 07:59:30;;;;;;;0.10;0.10;;;16.90;84.10;;;;;;4161339;28;19932;-49
2021/05/28 08:01:53;;;;;;;0.00;0.00;;;16.90;84.40;;;;;;4159758;28;20099;-48
2021/05/28 08:04:14;;;;;;;0.00;0.00;;;16.80;84.50;;;;;;4161255;28;20046;-48
2021/05/28 08:06:36;;;;;;;0.00;0.00;;;16.80;84.50;;;;;;4161344;28;20065;-49
2021/05/28 08:08:57;;;;;;;0.03;0.03;;;16.90;85.40;;;;;;4159788;28;20103;-47
2021/05/28 08:11:20;;;;;;;0.10;0.10;;;16.90;84.40;;;;;;4161087;28;20049;-48
2021/05/28 08:13:42;;;;;;;0.30;0.30;;;16.90;84.30;;;;;;4173313;28;20052;-49
2021/05/28 08:16:04;;;;;;;0.00;0.00;;;17.00;84.30;;;;;;4161259;28;20112;-51
2021/05/28 08:18:29;;;;;;;0.00;0.00;;;17.00;84.00;;;;;;4160997;28;20046;-49
2021/05/28 08:20:51;;;;;;;2.53;1.45;;;17.00;84.00;;;;;;4160952;28;20057;-50
2021/05/28 08:23:12;;;;;;;0.20;0.20;;;16.90;83.90;;;;;;4160412;28;20045;-49
2021/05/28 08:25:34;;;;;;;0.15;0.15;;;17.00;84.00;;;;;;4162898;28;20053;-48
2021/05/28 08:27:56;;;;;;;0.00;0.00;;;17.00;84.00;;;;;;4177230;28;20052;-50
2021/05/28 08:30:19;;;;;;;0.00;0.00;;;17.00;83.90;;;;;;4177197;28;20052;-50
2021/05/28 08:32:41;;;;;;;0.10;0.10;;;17.00;83.70;;;;;;4177343;28;20053;-48
2021/05/28 08:35:04;;;;;;;0.00;0.00;;;17.10;83.60;;;;;;4177092;28;20140;-49
2021/05/28 08:37:26;;;;;;;0.05;0.05;;;17.10;83.50;;;;;;4177326;28;20041;-50
2021/05/28 08:39:48;;;;;;;0.30;0.30;;;17.00;83.40;;;;;;4176680;28;20076;-50
2021/05/28 08:42:10;;;;;;;2.78;0.52;;;17.00;83.40;;;;;;4177179;28;20045;-49
2021/05/28 08:44:33;;;;;;;0.38;0.38;;;17.10;84.10;;;;;;4177103;28;20076;-49
2021/05/28 08:46:55;;;;;;;0.10;0.10;;;17.10;83.30;;;;;;4175658;28;20056;-51
2021/05/28 08:49:17;;;;;;;2.28;1.73;;;17.10;83.20;;;;;;4176785;28;20131;-51
2021/05/28 08:51:39;;;;;;;0.00;0.00;;;17.20;83.10;;;;;;4176958;28;20049;-47
2021/05/28 08:54:01;;;;;;;0.00;0.00;;;17.20;82.90;;;;;;4176625;28;20049;-49
2021/05/28 08:56:23;;;;;;;0.90;0.63;;;17.20;82.80;;;;;;4164739;28;20048;-52
2021/05/28 08:58:44;;;;;;;0.20;0.20;;;17.20;82.70;;;;;;4161163;28;20182;-49
2021/05/28 09:01:08;;;;;;;1.10;0.73;;;17.20;83.70;;;;;;4159878;28;20045;-50
2021/05/28 09:03:32;;;;;;;0.00;0.00;;;17.20;82.90;;;;;;4160113;28;20574;-49
2021/05/28 09:05:55;;;;;;;0.82;0.57;;;17.20;83.00;;;;;;4159277;28;20053;-49
2021/05/28 09:08:26;;;;;;;0.17;0.17;;;17.30;82.80;;;;;;4161201;28;20493;-46
2021/05/28 09:10:47;;;;;;;0.20;0.20;;;17.30;82.40;;;;;;4159654;28;20052;-50
2021/05/28 09:13:15;;;;;;;0.05;0.05;;;17.30;82.20;;;;;;4160004;28;20045;-51
2021/05/28 09:15:39;;;;;;;0.00;0.00;;;17.30;82.30;;;;;;4160111;28;22130;-49
2021/05/28 09:18:00;;;;;;;0.32;0.32;;;17.40;82.30;;;;;;4160858;28;20048;-50
2021/05/28 09:20:22;;;;;;;0.47;0.47;;;17.40;82.10;;;;;;4159910;28;20144;-49
2021/05/28 09:22:44;;;;;;;0.00;0.00;;;17.40;81.90;;;;;;4159565;28;20053;-50
2021/05/28 09:25:07;;;;;;;0.00;0.00;;;17.40;81.70;;;;;;4161027;28;20057;-47
2021/05/28 09:27:32;;;;;;;0.00;0.00;;;17.50;81.60;;;;;;4159580;28;20072;-50
2021/05/28 09:30:03;;;;;;;0.00;0.00;;;17.40;81.30;;;;;;4159367;28;20412;-49
2021/05/28 09:32:26;;;;;;;0.00;0.00;;;17.50;82.10;;;;;;4159596;28;20049;-49
2021/05/28 09:34:50;;;;;;;1.58;0.47;;;17.40;81.10;;;;;;4159661;28;20041;-49
2021/05/28 09:37:11;;;;;;;0.00;0.00;;;17.50;81.20;;;;;;4160715;28;20115;-49
2021/05/28 09:39:33;;;;;;;0.00;0.00;;;17.50;81.10;;;;;;4159355;28;20041;-50
2021/05/28 09:41:57;;;;;;;;;;;17.50;80.90;;;;;;4159996;28;20053;-50
2021/05/28 09:44:21;;;;;;;0.00;0.00;;;17.50;80.60;;;;;;4167721;28;19925;-47
2021/05/28 09:47:02;;;;;;;0.13;0.13;;;17.50;80.60;;;;;;4175235;28;20053;-50
2021/05/28 09:49:25;;;;;;;0.00;0.00;;;17.50;80.50;;;;;;4172930;28;20410;-50
2021/05/28 09:52:06;;;;;;;0.20;0.20;;;17.60;80.50;;;;;;4151191;28;20053;-51
2021/05/28 09:54:28;;;;;;;0.00;0.00;;;17.60;80.50;;;;;;4175185;28;20059;-46
2021/05/28 09:56:50;;;;;;;0.35;0.35;;;17.60;80.40;;;;;;4175732;28;20271;-49
2021/05/28 09:59:13;;;;;;;0.40;0.40;;;17.70;80.30;;;;;;4175744;28;20094;-48
2021/05/28 10:01:38;;;;;;;0.57;0.57;;;17.70;80.20;;;;;;4175679;28;20053;-46
2021/05/28 10:04:01;;;;;;;0.20;0.20;;;17.70;80.90;;;;;;4175262;28;20044;-47
2021/05/28 10:06:23;;;;;;;0.00;0.00;;;17.70;79.80;;;;;;4175567;28;20049;-51
2021/05/28 10:08:46;;;;;;;0.00;0.00;;;17.70;79.70;;;;;;4175389;28;20053;-48
2021/05/28 10:11:08;;;;;;;0.08;0.08;;;17.70;79.80;;;;;;4175577;28;20053;-49
2021/05/28 10:13:30;;;;;;;0.00;0.00;;;17.70;79.70;;;;;;4175301;28;20500;-51
2021/05/28 10:15:56;;;;;;;2.28;1.30;;;17.70;79.80;;;;;;4175385;28;20458;-48
2021/05/28 10:18:19;;;;;;;0.00;0.00;;;17.70;79.80;;;;;;4175179;28;20434;-47
2021/05/28 10:20:43;;;;;;;0.00;0.00;;;17.70;79.70;;;;;;4158927;28;20049;-48
2021/05/28 10:23:08;;;;;;;0.00;0.00;;;17.80;80.60;;;;;;4156384;28;20068;-52
2021/05/28 10:25:30;;;;;;;0.00;0.00;;;17.80;79.60;;;;;;4158565;28;20064;-53
2021/05/28 10:27:53;;;;;;;0.15;0.15;;;17.80;79.50;;;;;;4156123;28;20056;-50
2021/05/28 10:30:16;;;;;;;0.35;0.35;;;17.80;79.50;;;;;;4154573;28;20049;-54
2021/05/28 10:32:38;;;;;;;0.00;0.00;;;17.80;79.40;;;;;;4166088;28;20060;-48
2021/05/28 10:35:13;;;;;;;0.40;0.40;;;17.80;79.30;;;;;;4174990;28;20553;-47
2021/05/28 10:37:35;;;;;;;0.63;0.63;;;17.90;79.50;;;;;;4157643;28;20085;-49
2021/05/28 10:39:57;;;;;;;0.00;0.00;;;17.90;79.40;;;;;;4159662;28;20041;-45
2021/05/28 10:42:18;;;;;;;0.52;0.47;;;17.90;79.30;;;;;;4158805;28;20073;-49
2021/05/28 10:44:42;;;;;;;0.00;0.00;;;18.00;79.10;;;;;;4158392;28;20045;-48
2021/05/28 10:47:21;;;;;;;2.15;0.68;;;18.00;79.00;;;;;;4158492;28;20049;-49
2021/05/28 10:49:44;;;;;;;0.10;0.10;;;18.00;78.90;;;;;;4157938;28;20053;-48
2021/05/28 10:52:08;;;;;;;1.25;1.25;;;18.00;78.90;;;;;;4158315;28;20054;-47
2021/05/28 10:54:39;;;;;;;0.52;0.52;;;18.00;78.70;;;;;;4158467;28;20088;-50
2021/05/28 10:57:24;;;;;;;0.17;0.17;;;18.00;78.60;;;;;;4158150;28;20056;-46
2021/05/28 10:59:48;;;;;;;0.10;0.10;;;18.10;78.50;;;;;;4158460;28;20053;-49
2021/05/28 11:02:10;;;;;;;6.43;2.05;;;18.10;78.40;;;;;;4158164;28;20049;-51
2021/05/28 11:04:57;;;;;;;0.00;0.00;;;18.10;78.30;;;;;;4158088;28;20451;-46
2021/05/28 11:07:19;;;;;;;0.00;0.00;;;18.10;78.20;;;;;;4157941;28;20503;-47
2021/05/28 11:09:42;;;;;;;1.02;0.35;;;18.10;78.00;;;;;;4171495;28;20098;-46
2021/05/28 11:12:06;;;;;;;1.15;0.20;;;18.10;77.90;;;;;;4174694;28;20057;-47
2021/05/28 11:14:29;;;;;;;0.00;0.00;;;18.10;77.90;;;;;;4173915;28;20091;-51
2021/05/28 11:17:16;;;;;;;0.00;0.00;;;18.10;77.80;;;;;;4175030;28;20491;-45
2021/05/28 11:19:55;;;;;;;0.00;0.00;;;18.20;77.90;;;;;;4161117;28;20572;-46
2021/05/28 11:22:31;;;;;;;0.00;0.00;;;18.20;77.70;;;;;;4158099;28;20049;-52
2021/05/28 11:25:00;;;;;;;1.45;1.35;;;18.20;77.70;;;;;;4157821;28;20041;-45
2021/05/28 11:27:43;;;;;;;0.17;0.17;;;18.20;77.60;;;;;;4157763;28;20519;-47
2021/05/28 11:30:34;;;;;;;0.00;0.00;;;18.30;77.50;;;;;;4157800;28;20049;-46
2021/05/28 11:32:56;;;;;;;0.20;0.20;;;18.30;77.50;;;;;;4158043;28;20049;-46
2021/05/28 11:35:19;;;;;;;0.10;0.10;;;18.30;77.20;;;;;;4150061;28;20045;-45
2021/05/28 11:37:43;;;;;;;0.10;0.10;;;18.30;77.20;;;;;;4150134;28;20056;-46
2021/05/28 11:40:16;;;;;;;0.00;0.00;;;18.30;77.10;;;;;;4143177;28;20116;-46
2021/05/28 11:42:37;;;;;;;0.28;0.28;;;18.30;77.00;;;;;;4157969;28;20049;-46
2021/05/28 11:45:00;;;;;;;0.00;0.00;;;18.30;77.80;;;;;;4158083;28;20049;-48
2021/05/28 11:47:22;;;;;;;0.10;0.10;;;18.40;77.00;;;;;;4157933;28;20057;-45
2021/05/28 11:49:44;;;;;;;0.52;0.52;;;18.40;77.00;;;;;;4157982;28;20045;-46
2021/05/28 11:52:08;;;;;;;0.00;0.00;;;18.40;76.90;;;;;;4157923;28;20104;-47
2021/05/28 11:54:33;;;;;;;0.40;0.40;;;18.30;76.90;;;;;;4157898;28;20049;-46
2021/05/28 11:57:00;;;;;;;0.55;0.30;;;18.30;76.90;;;;;;4157611;28;20053;-45
2021/05/28 11:59:37;;;;;;;0.00;0.00;;;18.40;77.00;;;;;;4171732;28;20049;-50
2021/05/28 12:01:58;;;;;;;0.00;0.00;;;18.40;76.90;;;;;;4174259;28;20538;-45
2021/05/28 12:04:20;;;;;;;0.00;0.00;;;18.40;76.90;;;;;;4174230;28;20052;-45
2021/05/28 12:06:42;;;;;;;0.08;0.08;;;18.40;76.70;;;;;;4169638;28;20053;-46
2021/05/28 12:09:04;;;;;;;0.10;0.10;;;18.40;76.70;;;;;;4157828;28;20084;-46
2021/05/28 12:11:27;;;;;;;0.10;0.10;;;18.40;76.60;;;;;;4157606;28;20140;-45
2021/05/28 12:13:49;;;;;;;0.00;0.00;;;18.40;76.60;;;;;;4167215;28;20041;-45
2021/05/28 12:16:12;;;;;;;0.10;0.10;;;18.40;76.50;;;;;;4177499;28;20111;-47
2021/05/28 12:18:35;;;;;;;0.00;0.00;;;18.50;76.60;;;;;;4176995;28;20057;-46
2021/05/28 12:21:01;;;;;;;0.00;0.00;;;18.50;76.50;;;;;;4177295;28;20079;-50
2021/05/28 12:23:24;;;;;;;0.00;0.00;;;18.50;76.40;;;;;;4171453;28;20060;-47
2021/05/28 12:25:48;;;;;;;0.00;0.00;;;18.50;76.30;;;;;;4160873;28;20053;-51
2021/05/28 12:28:17;;;;;;;0.10;0.10;;;18.50;76.20;;;;;;4160635;28;20136;-47
2021/05/28 12:30:40;;;;;;;1.20;0.75;;;18.50;76.20;;;;;;4160348;28;20552;-47